createdAt,value
2017-02-08T00:01:01.785Z,932.55
2017-02-08T00:02:14.472Z,932.61
2017-02-08T00:03:27.723Z,932.6
2017-02-08T00:04:40.973Z,932.59
2017-02-08T00:05:54.219Z,932.59
2017-02-08T00:07:07.467Z,932.63
2017-02-08T00:08:20.146Z,932.63
2017-02-08T00:09:33.392Z,932.67
2017-02-08T00:10:46.074Z,932.71
2017-02-08T00:11:59.324Z,932.7
2017-02-08T00:13:11.440Z,932.68
2017-02-08T00:14:24.698Z,932.71
2017-02-08T00:15:37.380Z,932.71
2017-02-08T00:16:50.833Z,932.77
2017-02-08T00:18:04.082Z,932.76
2017-02-08T00:19:17.329Z,932.83
2017-02-08T00:20:30.576Z,932.78
2017-02-08T00:21:44.020Z,932.82
2017-02-08T00:22:57.266Z,932.82
2017-02-08T00:24:10.523Z,932.85
2017-02-08T00:25:23.771Z,932.88
2017-02-08T00:26:37.016Z,932.86
2017-02-08T00:27:50.466Z,932.84
2017-02-08T00:29:03.716Z,932.88
2017-02-08T00:30:16.967Z,932.88
2017-02-08T00:31:29.645Z,932.9
2017-02-08T00:32:43.095Z,932.94
2017-02-08T00:33:56.349Z,932.89
2017-02-08T00:35:09.029Z,932.88
2017-02-08T00:36:21.140Z,932.87
2017-02-08T00:37:34.388Z,932.95
2017-02-08T00:38:47.636Z,933
2017-02-08T00:40:00.885Z,933.05
2017-02-08T00:41:14.136Z,933.04
2017-02-08T00:42:27.388Z,933.06
2017-02-08T00:43:40.836Z,933.14
2017-02-08T00:44:54.083Z,933.14
2017-02-08T00:46:07.331Z,933.2
2017-02-08T00:47:20.580Z,933.09
2017-02-08T00:48:33.830Z,933.08
2017-02-08T00:49:47.277Z,933.03
2017-02-08T00:51:00.524Z,933.04
2017-02-08T00:52:13.770Z,933.12
2017-02-08T00:53:27.024Z,933.11
2017-02-08T00:54:40.271Z,933.13
2017-02-08T00:55:53.520Z,933.13
2017-02-08T00:57:06.773Z,933.14
2017-02-08T00:58:20.026Z,933.15
2017-02-08T00:59:33.276Z,933.13
2017-02-08T01:00:46.155Z,933.16
2017-02-08T01:01:59.401Z,933.19
2017-02-08T01:03:12.649Z,933.12
2017-02-08T01:04:25.895Z,933.09
2017-02-08T01:05:39.151Z,933.02
2017-02-08T01:06:52.399Z,933.04
2017-02-08T01:08:05.648Z,933.03
2017-02-08T01:09:18.326Z,933.05
2017-02-08T01:10:31.581Z,933.06
2017-02-08T01:11:45.031Z,933.06
2017-02-08T01:12:58.290Z,933.07
2017-02-08T01:14:10.971Z,933.08
2017-02-08T01:15:24.224Z,933.08
2017-02-08T01:16:37.677Z,933.13
2017-02-08T01:17:50.930Z,933.14
2017-02-08T01:19:04.184Z,933.12
2017-02-08T01:20:17.477Z,933.14
2017-02-08T01:21:30.726Z,933.16
2017-02-08T01:22:44.180Z,933.14
2017-02-08T01:23:57.442Z,933.18
2017-02-08T01:25:10.723Z,933.19
2017-02-08T01:26:24.043Z,933.17
2017-02-08T01:27:37.520Z,933.2
2017-02-08T01:28:50.821Z,933.19
2017-02-08T01:30:18.091Z,933.2
2017-02-08T01:31:30.798Z,933.18
2017-02-08T01:32:44.083Z,933.24
2017-02-08T01:33:56.983Z,933.21
2017-02-08T01:35:10.285Z,933.16
2017-02-08T01:36:23.552Z,933.23
2017-02-08T01:37:36.809Z,933.2
2017-02-08T01:38:50.361Z,933.25
2017-02-08T01:40:03.622Z,933.29
2017-02-08T01:41:16.877Z,933.32
2017-02-08T01:42:30.141Z,933.36
2017-02-08T01:43:42.467Z,933.4
2017-02-08T01:44:55.767Z,933.4
2017-02-08T01:46:08.491Z,933.35
2017-02-08T01:47:21.762Z,933.37
2017-02-08T01:48:35.017Z,933.38
2017-02-08T01:49:47.907Z,933.37
2017-02-08T01:51:01.166Z,933.33
2017-02-08T01:52:27.877Z,933.34
2017-02-08T01:53:41.370Z,933.34
2017-02-08T01:54:54.254Z,933.36
2017-02-08T01:56:07.505Z,933.32
2017-02-08T01:57:20.188Z,933.29
2017-02-08T01:58:32.866Z,933.28
2017-02-08T02:01:13.344Z,933.28
2017-02-08T02:02:26.595Z,933.3
2017-02-08T02:05:07.075Z,933.32
2017-02-08T02:06:19.753Z,933.28
2017-02-08T02:07:33.001Z,933.31
2017-02-08T02:08:46.247Z,933.27
2017-02-08T02:09:59.498Z,933.26
2017-02-08T02:11:12.749Z,933.22
2017-02-08T02:12:25.433Z,933.23
2017-02-08T02:13:38.675Z,933.24
2017-02-08T02:14:51.927Z,933.2
2017-02-08T02:16:05.177Z,933.17
2017-02-08T02:17:17.871Z,933.12
2017-02-08T02:18:30.719Z,933.13
2017-02-08T02:19:44.148Z,933.14
2017-02-08T02:21:11.666Z,933.13
2017-02-08T02:22:24.215Z,933.18
2017-02-08T02:23:37.326Z,933.14
2017-02-08T02:24:50.435Z,933.14
2017-02-08T02:26:03.547Z,933.17
2017-02-08T02:27:16.962Z,933.16
2017-02-08T02:28:30.073Z,933.16
2017-02-08T02:29:43.179Z,933.17
2017-02-08T02:30:55.739Z,933.09
2017-02-08T02:32:23.060Z,933.08
2017-02-08T02:33:36.169Z,933.06
2017-02-08T02:34:49.281Z,933.06
2017-02-08T02:36:02.393Z,933.06
2017-02-08T02:37:15.502Z,933.04
2017-02-08T02:38:28.615Z,933.04
2017-02-08T02:39:41.724Z,933
2017-02-08T02:40:54.840Z,932.97
2017-02-08T02:42:07.951Z,933.01
2017-02-08T02:44:48.180Z,933.02
2017-02-08T02:46:01.287Z,933.03
2017-02-08T02:47:14.401Z,933.07
2017-02-08T02:49:54.632Z,933.05
2017-02-08T02:51:07.746Z,933.07
2017-02-08T02:52:34.865Z,933.01
2017-02-08T02:53:47.974Z,933.02
2017-02-08T02:55:00.527Z,933
2017-02-08T02:57:40.754Z,933.03
2017-02-08T02:58:53.863Z,932.99
2017-02-08T03:00:06.972Z,932.95
2017-02-08T03:01:18.968Z,932.91
2017-02-08T03:03:58.640Z,932.81
2017-02-08T03:05:11.210Z,932.8
2017-02-08T03:06:23.891Z,932.77
2017-02-08T03:07:36.591Z,932.81
2017-02-08T03:08:49.835Z,932.86
2017-02-08T03:10:03.284Z,932.82
2017-02-08T03:11:16.530Z,932.77
2017-02-08T03:12:29.777Z,932.78
2017-02-08T03:13:43.027Z,932.72
2017-02-08T03:14:56.478Z,932.7
2017-02-08T03:16:09.730Z,932.65
2017-02-08T03:17:22.412Z,932.68
2017-02-08T03:18:35.660Z,932.68
2017-02-08T03:19:48.910Z,932.64
2017-02-08T03:21:02.157Z,932.64
2017-02-08T03:22:14.836Z,932.59
2017-02-08T03:23:27.519Z,932.58
2017-02-08T03:24:40.768Z,932.55
2017-02-08T03:25:54.219Z,932.59
2017-02-08T03:27:07.467Z,932.52
2017-02-08T03:29:47.944Z,932.56
2017-02-08T03:31:01.390Z,932.57
2017-02-08T03:32:14.634Z,932.62
2017-02-08T03:33:27.884Z,932.64
2017-02-08T03:34:41.136Z,932.65
2017-02-08T03:35:54.379Z,932.6
2017-02-08T03:37:07.926Z,932.54
2017-02-08T03:38:20.608Z,932.49
2017-02-08T03:39:33.858Z,932.46
2017-02-08T03:40:47.100Z,932.45
2017-02-08T03:42:00.547Z,932.42
2017-02-08T03:43:13.230Z,932.41
2017-02-08T03:44:25.907Z,932.41
2017-02-08T03:45:39.155Z,932.37
2017-02-08T03:46:52.405Z,932.35
2017-02-08T03:48:05.654Z,932.34
2017-02-08T03:49:18.330Z,932.35
2017-02-08T03:50:31.575Z,932.28
2017-02-08T03:51:44.826Z,932.26
2017-02-08T03:52:58.273Z,932.22
2017-02-08T03:54:11.522Z,932.2
2017-02-08T03:55:24.773Z,932.13
2017-02-08T03:56:38.019Z,932.13
2017-02-08T03:57:51.263Z,932.08
2017-02-08T03:59:04.715Z,932.12
2017-02-08T04:00:17.965Z,932.1
2017-02-08T04:01:31.211Z,932.1
2017-02-08T04:02:44.455Z,932.13
2017-02-08T04:03:57.904Z,932.2
2017-02-08T04:05:10.587Z,932.27
2017-02-08T04:06:23.835Z,932.24
2017-02-08T04:07:36.515Z,932.24
2017-02-08T04:09:03.942Z,932.16
2017-02-08T04:10:17.188Z,932.12
2017-02-08T04:11:29.870Z,932.13
2017-02-08T04:12:43.120Z,932.12
2017-02-08T04:13:56.367Z,932.13
2017-02-08T04:15:09.614Z,932.11
2017-02-08T04:16:22.861Z,932.04
2017-02-08T04:17:36.110Z,932.04
2017-02-08T04:18:49.356Z,932.04
2017-02-08T04:20:02.608Z,931.97
2017-02-08T04:21:15.857Z,932.01
2017-02-08T04:22:29.101Z,932.02
2017-02-08T04:23:41.781Z,932
2017-02-08T04:24:55.030Z,932.01
2017-02-08T04:26:08.475Z,932
2017-02-08T04:27:21.721Z,931.99
2017-02-08T04:28:34.969Z,931.97
2017-02-08T04:31:15.452Z,931.98
2017-02-08T04:32:28.705Z,932.01
2017-02-08T04:33:41.952Z,932.03
2017-02-08T04:34:55.200Z,932.03
2017-02-08T04:36:08.750Z,932.05
2017-02-08T04:37:21.997Z,932.05
2017-02-08T04:38:34.679Z,932.05
2017-02-08T04:39:47.922Z,932.05
2017-02-08T04:41:01.170Z,932.01
2017-02-08T04:42:14.621Z,932.02
2017-02-08T04:43:27.873Z,932.02
2017-02-08T04:44:41.122Z,931.99
2017-02-08T04:47:35.584Z,931.96
2017-02-08T04:48:48.862Z,931.93
2017-02-08T04:50:02.118Z,931.92
2017-02-08T04:51:15.367Z,931.9
2017-02-08T04:52:28.613Z,931.93
2017-02-08T04:53:41.896Z,931.92
2017-02-08T04:54:55.144Z,931.97
2017-02-08T04:56:08.393Z,931.93
2017-02-08T04:57:21.936Z,931.97
2017-02-08T04:58:34.616Z,931.88
2017-02-08T04:59:47.860Z,931.87
2017-02-08T05:01:01.105Z,931.82
2017-02-08T05:02:14.385Z,931.8
2017-02-08T05:03:27.631Z,931.77
2017-02-08T05:04:40.308Z,931.76
2017-02-08T05:05:53.557Z,931.73
2017-02-08T05:07:06.800Z,931.67
2017-02-08T05:08:20.345Z,931.71
2017-02-08T05:09:33.593Z,931.66
2017-02-08T05:10:46.275Z,931.63
2017-02-08T05:11:59.520Z,931.64
2017-02-08T05:13:12.971Z,931.68
2017-02-08T05:14:26.217Z,931.66
2017-02-08T05:15:39.462Z,931.65
2017-02-08T05:16:52.706Z,931.66
2017-02-08T05:18:05.951Z,931.7
2017-02-08T05:19:18.630Z,931.72
2017-02-08T05:20:31.860Z,931.69
2017-02-08T05:21:44.968Z,931.72
2017-02-08T05:22:58.079Z,931.72
2017-02-08T05:24:11.487Z,931.69
2017-02-08T05:25:24.600Z,931.68
2017-02-08T05:26:37.708Z,931.66
2017-02-08T05:27:50.816Z,931.61
2017-02-08T05:29:03.923Z,931.64
2017-02-08T05:30:17.232Z,931.6
2017-02-08T05:31:30.340Z,931.61
2017-02-08T05:32:43.447Z,931.57
2017-02-08T05:33:56.560Z,931.58
2017-02-08T05:35:09.309Z,931.52
2017-02-08T05:36:22.415Z,931.5
2017-02-08T05:37:34.408Z,931.43
2017-02-08T05:38:47.517Z,931.45
2017-02-08T05:40:00.629Z,931.43
2017-02-08T05:41:13.743Z,931.39
2017-02-08T05:42:26.850Z,931.4
2017-02-08T05:43:39.957Z,931.45
2017-02-08T05:44:53.076Z,931.48
2017-02-08T05:46:06.187Z,931.53
2017-02-08T05:47:19.302Z,931.52
2017-02-08T05:48:32.412Z,931.5
2017-02-08T05:49:59.531Z,931.51
2017-02-08T05:51:12.282Z,931.51
2017-02-08T05:52:25.394Z,931.47
2017-02-08T05:53:38.503Z,931.49
2017-02-08T05:54:51.611Z,931.53
2017-02-08T05:56:04.720Z,931.54
2017-02-08T05:57:17.271Z,931.58
2017-02-08T05:58:30.379Z,931.61
2017-02-08T05:59:43.488Z,931.62
2017-02-08T06:00:56.598Z,931.59
2017-02-08T06:02:09.706Z,931.54
2017-02-08T06:03:22.823Z,931.51
2017-02-08T06:04:35.931Z,931.52
2017-02-08T06:05:48.480Z,931.47
2017-02-08T06:07:01.589Z,931.46
2017-02-08T06:08:14.899Z,931.47
2017-02-08T06:09:28.044Z,931.45
2017-02-08T06:10:41.152Z,931.38
2017-02-08T06:11:54.260Z,931.41
2017-02-08T06:13:07.568Z,931.41
2017-02-08T06:14:20.120Z,931.48
2017-02-08T06:15:33.231Z,931.47
2017-02-08T06:16:46.347Z,931.52
2017-02-08T06:17:59.454Z,931.55
2017-02-08T06:19:12.765Z,931.6
2017-02-08T06:20:25.877Z,931.57
2017-02-08T06:21:38.985Z,931.59
2017-02-08T06:22:52.099Z,931.6
2017-02-08T06:24:05.411Z,931.67
2017-02-08T06:25:17.961Z,931.71
2017-02-08T06:26:31.073Z,931.73
2017-02-08T06:27:43.626Z,931.71
2017-02-08T06:28:56.738Z,931.71
2017-02-08T06:30:10.043Z,931.72
2017-02-08T06:31:22.594Z,931.72
2017-02-08T06:32:35.703Z,931.65
2017-02-08T06:33:48.809Z,931.7
2017-02-08T06:35:02.122Z,931.68
2017-02-08T06:36:14.673Z,931.7
2017-02-08T06:37:27.782Z,931.7
2017-02-08T06:38:40.908Z,931.64
2017-02-08T06:39:54.015Z,931.65
2017-02-08T06:41:06.863Z,931.67
2017-02-08T06:42:19.417Z,931.68
2017-02-08T06:43:32.523Z,931.74
2017-02-08T06:44:45.631Z,931.76
2017-02-08T06:45:58.739Z,931.81
2017-02-08T06:47:11.290Z,931.79
2017-02-08T06:48:24.397Z,931.82
2017-02-08T06:49:36.948Z,931.77
2017-02-08T06:50:50.067Z,931.78
2017-02-08T06:52:03.175Z,931.71
2017-02-08T06:53:30.293Z,931.74
2017-02-08T06:54:43.405Z,931.79
2017-02-08T06:55:56.512Z,931.78
2017-02-08T06:57:09.920Z,931.78
2017-02-08T06:58:22.470Z,931.73
2017-02-08T06:59:35.577Z,931.75
2017-02-08T07:00:48.127Z,931.75
2017-02-08T07:02:01.539Z,931.75
2017-02-08T07:03:14.645Z,931.8
2017-02-08T07:04:27.754Z,931.86
2017-02-08T07:05:40.863Z,931.88
2017-02-08T07:06:53.970Z,931.93
2017-02-08T07:08:07.089Z,931.9
2017-02-08T07:09:20.201Z,931.88
2017-02-08T07:10:33.345Z,931.93
2017-02-08T07:11:46.454Z,931.9
2017-02-08T07:12:59.563Z,931.89
2017-02-08T07:14:12.699Z,931.88
2017-02-08T07:15:25.258Z,931.86
2017-02-08T07:16:38.364Z,931.94
2017-02-08T07:17:51.474Z,931.97
2017-02-08T07:19:04.823Z,931.93
2017-02-08T07:20:17.935Z,931.92
2017-02-08T07:21:31.047Z,931.84
2017-02-08T07:22:44.154Z,931.82
2017-02-08T07:23:57.264Z,931.83
2017-02-08T07:25:10.377Z,931.84
2017-02-08T07:26:23.487Z,931.85
2017-02-08T07:27:36.594Z,931.87
2017-02-08T07:28:49.702Z,931.89
2017-02-08T07:30:03.107Z,931.84
2017-02-08T07:31:15.659Z,931.95
2017-02-08T07:32:28.767Z,931.96
2017-02-08T07:33:41.879Z,931.95
2017-02-08T07:34:55.188Z,931.98
2017-02-08T07:36:08.300Z,931.99
2017-02-08T07:37:21.409Z,931.96
2017-02-08T07:38:34.519Z,932
2017-02-08T07:39:47.626Z,931.96
2017-02-08T07:41:01.037Z,931.97
2017-02-08T07:42:14.144Z,931.94
2017-02-08T07:43:27.256Z,931.95
2017-02-08T07:44:54.375Z,931.97
2017-02-08T07:46:07.783Z,931.92
2017-02-08T07:47:20.889Z,931.92
2017-02-08T07:48:33.999Z,931.91
2017-02-08T07:49:47.105Z,931.93
2017-02-08T07:51:00.216Z,932.02
2017-02-08T07:52:13.333Z,932.08
2017-02-08T07:53:26.440Z,932.09
2017-02-08T07:54:39.548Z,932.09
2017-02-08T07:55:52.398Z,932.06
2017-02-08T07:57:05.504Z,932.08
2017-02-08T07:58:18.617Z,932.11
2017-02-08T07:59:31.168Z,932.13
2017-02-08T08:00:44.275Z,932.1
2017-02-08T08:01:57.026Z,932.14
2017-02-08T08:03:10.137Z,932.14
2017-02-08T08:04:23.246Z,932.18
2017-02-08T08:05:36.357Z,932.17
2017-02-08T08:06:48.904Z,932.17
2017-02-08T08:08:02.015Z,932.18
2017-02-08T08:09:15.124Z,932.21
2017-02-08T08:10:28.229Z,932.22
2017-02-08T08:11:41.338Z,932.21
2017-02-08T08:12:54.450Z,932.22
2017-02-08T08:14:07.559Z,932.21
2017-02-08T08:15:20.666Z,932.21
2017-02-08T08:16:33.776Z,932.26
2017-02-08T08:17:46.898Z,932.32
2017-02-08T08:19:00.007Z,932.35
2017-02-08T08:20:13.135Z,932.31
2017-02-08T08:21:26.381Z,932.33
2017-02-08T08:22:39.631Z,932.33
2017-02-08T08:24:06.860Z,932.34
2017-02-08T08:25:20.103Z,932.38
2017-02-08T08:26:33.349Z,932.37
2017-02-08T08:27:46.594Z,932.39
2017-02-08T08:28:59.841Z,932.39
2017-02-08T08:30:27.075Z,932.4
2017-02-08T08:31:40.321Z,932.41
2017-02-08T08:32:53.771Z,932.42
2017-02-08T08:34:07.017Z,932.42
2017-02-08T08:35:20.264Z,932.45
2017-02-08T08:36:47.493Z,932.49
2017-02-08T08:38:00.940Z,932.47
2017-02-08T08:39:13.625Z,932.49
2017-02-08T08:40:26.304Z,932.54
2017-02-08T08:41:39.551Z,932.51
2017-02-08T08:42:52.232Z,932.51
2017-02-08T08:44:05.682Z,932.52
2017-02-08T08:45:18.359Z,932.54
2017-02-08T08:46:31.607Z,932.5
2017-02-08T08:47:43.712Z,932.52
2017-02-08T08:48:57.165Z,932.54
2017-02-08T08:50:10.414Z,932.56
2017-02-08T08:51:23.660Z,932.55
2017-02-08T08:52:36.932Z,932.57
2017-02-08T08:54:04.367Z,932.56
2017-02-08T08:55:17.047Z,932.54
2017-02-08T08:56:30.293Z,932.57
2017-02-08T08:57:43.541Z,932.51
2017-02-08T08:58:56.788Z,932.56
2017-02-08T09:00:10.235Z,932.59
2017-02-08T09:01:23.486Z,932.56
2017-02-08T09:02:36.734Z,932.6
2017-02-08T09:03:49.979Z,932.62
2017-02-08T09:05:03.562Z,932.64
2017-02-08T09:06:16.808Z,932.64
2017-02-08T09:07:29.490Z,932.65
2017-02-08T09:08:42.743Z,932.65
2017-02-08T09:09:55.991Z,932.69
2017-02-08T09:11:08.968Z,932.71
2017-02-08T09:12:22.244Z,932.72
2017-02-08T09:13:35.492Z,932.75
2017-02-08T09:14:48.737Z,932.77
2017-02-08T09:16:01.990Z,932.84
2017-02-08T09:17:15.252Z,932.82
2017-02-08T09:18:28.501Z,932.82
2017-02-08T09:19:41.745Z,932.84
2017-02-08T09:20:54.995Z,932.85
2017-02-08T09:22:08.443Z,932.87
2017-02-08T09:23:21.127Z,932.91
2017-02-08T09:24:48.355Z,932.97
2017-02-08T09:26:01.601Z,933
2017-02-08T09:27:15.048Z,933.02
2017-02-08T09:28:28.295Z,933.02
2017-02-08T09:29:41.542Z,933.05
2017-02-08T09:30:54.789Z,933.07
2017-02-08T09:32:08.043Z,933.06
2017-02-08T09:33:21.296Z,933.06
2017-02-08T09:34:34.541Z,933.08
2017-02-08T09:35:47.787Z,933.09
2017-02-08T09:37:01.234Z,933.12
2017-02-08T09:38:14.480Z,933.11
2017-02-08T09:39:27.727Z,933.1
2017-02-08T09:40:40.977Z,933.12
2017-02-08T09:41:54.226Z,933.11
2017-02-08T09:43:06.905Z,933.09
2017-02-08T09:44:20.153Z,933.14
2017-02-08T09:45:47.383Z,933.17
2017-02-08T09:47:00.633Z,933.22
2017-02-08T09:48:14.077Z,933.24
2017-02-08T09:49:27.323Z,933.25
2017-02-08T09:50:40.554Z,933.28
2017-02-08T09:51:53.665Z,933.23
2017-02-08T09:53:06.216Z,933.24
2017-02-08T09:54:33.335Z,933.22
2017-02-08T09:55:45.884Z,933.24
2017-02-08T09:56:58.992Z,933.24
2017-02-08T09:58:12.101Z,933.25
2017-02-08T09:59:25.209Z,933.28
2017-02-08T10:00:38.318Z,933.26
2017-02-08T10:01:51.433Z,933.26
2017-02-08T10:03:04.541Z,933.26
2017-02-08T10:04:17.652Z,933.28
2017-02-08T10:05:30.761Z,933.26
2017-02-08T10:06:43.873Z,933.3
2017-02-08T10:07:56.985Z,933.3
2017-02-08T10:09:10.093Z,933.3
2017-02-08T10:10:23.203Z,933.31
2017-02-08T10:11:36.312Z,933.31
2017-02-08T10:12:49.423Z,933.32
2017-02-08T10:14:02.535Z,933.34
2017-02-08T10:15:15.848Z,933.37
2017-02-08T10:16:29.083Z,933.37
2017-02-08T10:17:42.192Z,933.4
2017-02-08T10:18:54.181Z,933.39
2017-02-08T10:20:07.289Z,933.44
2017-02-08T10:21:34.409Z,933.46
2017-02-08T10:22:47.522Z,933.44
2017-02-08T10:24:00.631Z,933.47
2017-02-08T10:25:13.942Z,933.47
2017-02-08T10:26:26.497Z,933.47
2017-02-08T10:27:39.609Z,933.5
2017-02-08T10:28:51.040Z,933.48
2017-02-08T10:30:04.147Z,933.52
2017-02-08T10:31:17.455Z,933.52
2017-02-08T10:32:30.562Z,933.51
2017-02-08T10:33:43.671Z,933.53
2017-02-08T10:34:56.223Z,933.53
2017-02-08T10:36:09.331Z,933.54
2017-02-08T10:37:22.439Z,933.55
2017-02-08T10:38:35.557Z,933.54
2017-02-08T10:39:48.669Z,933.51
2017-02-08T10:41:01.777Z,933.54
2017-02-08T10:42:14.326Z,933.54
2017-02-08T10:43:27.435Z,933.51
2017-02-08T10:44:40.543Z,933.48
2017-02-08T10:45:53.649Z,933.52
2017-02-08T10:47:06.759Z,933.5
2017-02-08T10:48:19.866Z,933.55
2017-02-08T10:49:32.417Z,933.59
2017-02-08T10:50:45.524Z,933.6
2017-02-08T10:51:58.641Z,933.63
2017-02-08T10:53:11.755Z,933.68
2017-02-08T10:54:24.865Z,933.63
2017-02-08T10:55:37.973Z,933.64
2017-02-08T10:56:51.081Z,933.65
2017-02-08T10:58:18.507Z,933.59
2017-02-08T10:59:31.617Z,933.59
2017-02-08T11:00:58.736Z,933.55
2017-02-08T11:02:12.460Z,933.57
2017-02-08T11:03:39.597Z,933.55
2017-02-08T11:06:19.825Z,933.66
2017-02-08T11:07:32.674Z,933.58
2017-02-08T11:08:45.798Z,933.63
2017-02-08T11:09:58.909Z,933.59
2017-02-08T11:11:11.462Z,933.57
2017-02-08T11:12:24.577Z,933.61
2017-02-08T11:13:37.989Z,933.62
2017-02-08T11:14:50.536Z,933.68
2017-02-08T11:16:03.087Z,933.66
2017-02-08T11:17:16.199Z,933.7
2017-02-08T11:18:28.752Z,933.67
2017-02-08T11:19:41.880Z,933.67
2017-02-08T11:20:53.936Z,933.69
2017-02-08T11:22:07.185Z,933.66
2017-02-08T11:23:20.438Z,933.66
2017-02-08T11:24:33.894Z,933.62
2017-02-08T11:25:47.147Z,933.67
2017-02-08T11:27:00.390Z,933.62
2017-02-08T11:28:13.643Z,933.62
2017-02-08T11:29:26.894Z,933.65
2017-02-08T11:30:40.153Z,933.69
2017-02-08T11:31:53.425Z,933.71
2017-02-08T11:33:06.228Z,933.72
2017-02-08T11:34:19.497Z,933.76
2017-02-08T11:35:32.762Z,933.76
2017-02-08T11:36:46.028Z,933.75
2017-02-08T11:37:59.297Z,933.74
2017-02-08T11:39:12.587Z,933.72
2017-02-08T11:40:45.751Z,933.71
2017-02-08T11:44:01.208Z,933.73
2017-02-08T11:45:14.111Z,933.79
2017-02-08T11:46:27.551Z,933.81
2017-02-08T11:47:40.426Z,933.78
2017-02-08T11:48:53.771Z,933.73
2017-02-08T11:50:06.628Z,933.75
2017-02-08T11:51:19.624Z,933.75
2017-02-08T11:52:32.871Z,933.77
2017-02-08T11:53:45.554Z,933.79
2017-02-08T11:54:58.804Z,933.79
2017-02-08T11:56:11.783Z,933.79
2017-02-08T11:57:25.039Z,933.79
2017-02-08T11:58:38.290Z,933.79
2017-02-08T11:59:51.540Z,933.76
2017-02-08T12:01:04.787Z,933.82
2017-02-08T12:02:17.664Z,933.82
2017-02-08T12:03:30.348Z,933.82
2017-02-08T12:06:38.171Z,933.87
2017-02-08T12:09:33.260Z,933.88
2017-02-08T12:10:45.944Z,933.87
2017-02-08T12:11:58.625Z,933.9
2017-02-08T12:13:11.872Z,933.96
2017-02-08T12:14:25.126Z,933.92
2017-02-08T12:15:38.374Z,933.94
2017-02-08T12:16:51.626Z,933.96
2017-02-08T12:18:05.074Z,933.95
2017-02-08T12:19:18.320Z,933.96
2017-02-08T12:20:31.575Z,933.99
2017-02-08T12:21:44.823Z,934
2017-02-08T12:22:58.373Z,933.96
2017-02-08T12:24:25.605Z,933.94
2017-02-08T12:25:38.853Z,933.94
2017-02-08T12:27:06.087Z,933.99
2017-02-08T12:28:18.969Z,933.98
2017-02-08T12:29:46.199Z,933.98
2017-02-08T12:30:59.447Z,933.92
2017-02-08T12:32:12.699Z,933.98
2017-02-08T12:33:24.810Z,933.99
2017-02-08T12:34:38.067Z,933.97
2017-02-08T12:35:51.319Z,933.94
2017-02-08T12:37:04.593Z,933.95
2017-02-08T12:38:17.309Z,933.93
2017-02-08T12:39:29.629Z,934.01
2017-02-08T12:40:42.901Z,933.97
2017-02-08T12:41:55.066Z,933.96
2017-02-08T12:43:08.344Z,933.98
2017-02-08T12:44:21.120Z,934.02
2017-02-08T12:45:33.341Z,933.99
2017-02-08T12:46:46.714Z,934
2017-02-08T12:47:59.645Z,934.03
2017-02-08T12:49:27.291Z,933.99
2017-02-08T12:50:40.780Z,934.01
2017-02-08T12:51:54.260Z,934.06
2017-02-08T12:53:07.214Z,934
2017-02-08T12:54:19.496Z,934.05
2017-02-08T12:55:46.927Z,933.99
2017-02-08T12:57:00.459Z,934.04
2017-02-08T12:58:13.928Z,934.02
2017-02-08T12:59:27.438Z,933.99
2017-02-08T13:00:40.847Z,934.02
2017-02-08T13:01:54.096Z,933.98
2017-02-08T13:03:06.783Z,933.96
2017-02-08T13:04:34.026Z,933.96
2017-02-08T13:05:47.278Z,933.98
2017-02-08T13:07:00.531Z,933.94
2017-02-08T13:08:13.226Z,933.98
2017-02-08T13:09:26.484Z,933.94
2017-02-08T13:10:39.746Z,933.94
2017-02-08T13:11:53.005Z,933.98
2017-02-08T13:13:06.258Z,934.02
2017-02-08T13:14:19.518Z,934.03
2017-02-08T13:15:32.972Z,934.02
2017-02-08T13:16:46.234Z,934.03
2017-02-08T13:17:59.509Z,934.02
2017-02-08T13:19:12.765Z,933.98
2017-02-08T13:20:25.457Z,934
2017-02-08T13:21:38.709Z,933.98
2017-02-08T13:22:51.962Z,933.98
2017-02-08T13:24:05.220Z,933.98
2017-02-08T13:25:17.908Z,933.96
2017-02-08T13:26:31.393Z,933.97
2017-02-08T13:27:44.684Z,934.01
2017-02-08T13:28:58.405Z,933.96
2017-02-08T13:30:25.907Z,933.99
2017-02-08T13:31:52.793Z,933.94
2017-02-08T13:33:06.073Z,933.95
2017-02-08T13:34:38.430Z,933.92
2017-02-08T13:35:51.721Z,933.95
2017-02-08T13:37:05.199Z,933.9
2017-02-08T13:38:18.498Z,933.9
2017-02-08T13:39:31.790Z,933.92
2017-02-08T13:40:45.912Z,933.84
2017-02-08T13:41:58.625Z,933.85
2017-02-08T13:43:11.850Z,933.83
2017-02-08T13:44:24.979Z,933.79
2017-02-08T13:45:51.663Z,933.83
2017-02-08T13:47:04.931Z,933.84
2017-02-08T13:48:18.197Z,933.84
2017-02-08T13:49:30.923Z,933.82
2017-02-08T13:50:43.626Z,933.83
2017-02-08T13:52:10.866Z,933.93
2017-02-08T13:53:24.348Z,933.83
2017-02-08T13:56:03.731Z,933.83
2017-02-08T13:57:17.208Z,933.93
2017-02-08T13:58:30.477Z,933.88
2017-02-08T13:59:57.728Z,933.88
2017-02-08T14:01:12.285Z,933.87
2017-02-08T14:02:25.772Z,933.84
2017-02-08T14:03:37.909Z,933.87
2017-02-08T14:04:51.182Z,933.88
2017-02-08T14:06:03.316Z,933.9
2017-02-08T14:07:30.840Z,933.85
2017-02-08T14:08:42.991Z,933.85
2017-02-08T14:09:55.700Z,933.86
2017-02-08T14:11:12.039Z,933.81
2017-02-08T14:13:04.414Z,933.81
2017-02-08T14:14:17.180Z,933.78
2017-02-08T14:15:30.450Z,933.8
2017-02-08T14:16:43.956Z,933.85
2017-02-08T14:17:56.111Z,933.84
2017-02-08T14:19:08.442Z,933.85
2017-02-08T14:20:21.710Z,933.87
2017-02-08T14:21:35.259Z,933.82
2017-02-08T14:22:48.428Z,933.82
2017-02-08T14:24:02.143Z,933.8
2017-02-08T14:25:15.313Z,933.81
2017-02-08T14:26:56.457Z,933.79
2017-02-08T14:28:09.628Z,933.77
2017-02-08T14:29:21.659Z,933.78
2017-02-08T14:30:48.811Z,933.75
2017-02-08T14:32:01.987Z,933.76
2017-02-08T14:39:14.039Z,933.72
2017-02-08T14:42:56.332Z,933.73
2017-02-08T14:44:09.540Z,933.73
2017-02-08T14:45:22.115Z,933.68
2017-02-08T14:46:35.249Z,933.79
2017-02-08T14:47:48.366Z,933.75
2017-02-08T14:49:01.488Z,933.73
2017-02-08T14:50:14.609Z,933.71
2017-02-08T14:51:27.765Z,933.76
2017-02-08T14:52:41.092Z,933.8
2017-02-08T14:53:54.216Z,933.73
2017-02-08T14:55:06.243Z,933.75
2017-02-08T14:56:33.374Z,933.68
2017-02-08T14:57:46.501Z,933.75
2017-02-08T14:58:59.102Z,933.78
2017-02-08T15:00:11.662Z,933.77
2017-02-08T15:01:24.779Z,933.76
2017-02-08T15:02:52.121Z,933.76
2017-02-08T15:04:05.255Z,933.72
2017-02-08T15:05:31.843Z,933.74
2017-02-08T15:06:45.104Z,933.74
2017-02-08T15:07:58.365Z,933.67
2017-02-08T15:09:11.053Z,933.71
2017-02-08T15:10:24.306Z,933.71
2017-02-08T15:11:36.428Z,933.73
2017-02-08T15:12:49.123Z,933.81
2017-02-08T15:14:02.393Z,933.75
2017-02-08T15:15:15.077Z,933.71
2017-02-08T15:16:27.765Z,933.69
2017-02-08T15:17:41.022Z,933.7
2017-02-08T15:18:54.277Z,933.69
2017-02-08T15:20:06.970Z,933.7
2017-02-08T15:21:34.218Z,933.65
2017-02-08T15:22:47.475Z,933.71
2017-02-08T15:24:00.930Z,933.78
2017-02-08T15:25:13.617Z,933.87
2017-02-08T15:26:26.874Z,933.77
2017-02-08T15:27:40.135Z,933.77
2017-02-08T15:28:53.392Z,933.76
2017-02-08T15:30:06.646Z,933.74
2017-02-08T15:31:19.899Z,933.78
2017-02-08T15:32:33.167Z,933.76
2017-02-08T15:33:46.425Z,933.71
2017-02-08T15:35:13.663Z,933.76
2017-02-08T15:36:26.914Z,933.76
2017-02-08T15:37:40.176Z,933.79
2017-02-08T15:38:53.433Z,933.69
2017-02-08T15:40:06.137Z,933.71
2017-02-08T15:41:19.399Z,933.73
2017-02-08T15:42:32.652Z,933.7
2017-02-08T15:43:45.911Z,933.67
2017-02-08T15:44:59.170Z,933.7
2017-02-08T15:46:11.862Z,933.71
2017-02-08T15:47:25.120Z,933.69
2017-02-08T15:48:38.377Z,933.73
2017-02-08T15:49:51.635Z,933.73
2017-02-08T15:51:03.757Z,933.65
2017-02-08T15:52:17.025Z,933.69
2017-02-08T15:53:43.153Z,933.68
2017-02-08T15:54:56.423Z,933.72
2017-02-08T15:56:09.714Z,933.66
2017-02-08T15:57:22.984Z,933.7